createdAt,value
2018-10-18T00:00:41.713Z,13.87
2018-10-18T00:01:41.599Z,13.88
2018-10-18T00:02:41.665Z,13.80
2018-10-18T00:03:41.551Z,13.81
2018-10-18T00:04:41.572Z,13.90
2018-10-18T00:05:41.494Z,13.69
2018-10-18T00:06:41.485Z,13.69
2018-10-18T00:07:41.445Z,13.81
2018-10-18T00:08:41.516Z,13.73
2018-10-18T00:09:41.397Z,13.80
2018-10-18T00:10:41.421Z,13.84
2018-10-18T00:11:41.357Z,13.84
2018-10-18T00:12:41.423Z,13.76
2018-10-18T00:13:41.290Z,13.79
2018-10-18T00:14:41.336Z,13.76
2018-10-18T00:15:41.248Z,13.71
2018-10-18T00:16:41.252Z,13.80
2018-10-18T00:17:41.185Z,13.86
2018-10-18T00:18:41.257Z,13.79
2018-10-18T00:19:41.154Z,13.84
2018-10-18T00:20:41.187Z,13.80
2018-10-18T00:21:41.090Z,13.86
2018-10-18T00:23:27.333Z,13.80
2018-10-18T00:24:27.290Z,13.69
2018-10-18T00:25:27.268Z,13.73
2018-10-18T00:26:27.245Z,13.73
2018-10-18T00:27:27.208Z,13.68
2018-10-18T00:28:27.199Z,13.68
2018-10-18T00:29:27.164Z,13.73
2018-10-18T00:30:27.138Z,13.71
2018-10-18T00:31:27.119Z,13.76
2018-10-18T00:32:27.117Z,13.71
2018-10-18T00:33:27.055Z,13.69
2018-10-18T00:34:27.038Z,13.66
2018-10-18T00:35:27.006Z,13.69
2018-10-18T00:36:27.041Z,13.71
2018-10-18T00:37:26.967Z,13.69
2018-10-18T00:38:26.929Z,13.68
2018-10-18T00:39:26.905Z,13.65
2018-10-18T00:40:26.969Z,13.63
2018-10-18T00:41:26.853Z,13.57
2018-10-18T00:42:26.825Z,13.54
2018-10-18T00:43:26.833Z,13.59
2018-10-18T00:44:26.776Z,13.55
2018-10-18T00:45:26.864Z,13.51
2018-10-18T00:46:26.730Z,13.59
2018-10-18T00:47:26.706Z,13.55
2018-10-18T00:48:26.765Z,13.53
2018-10-18T00:50:12.591Z,13.50
2018-10-18T00:51:12.479Z,13.54
2018-10-18T00:52:12.557Z,13.61
2018-10-18T00:53:12.416Z,13.55
2018-10-18T00:54:12.479Z,13.53
2018-10-18T00:55:12.378Z,13.59
2018-10-18T00:56:12.371Z,13.51
2018-10-18T00:57:12.317Z,13.62
2018-10-18T00:58:12.295Z,13.63
2018-10-18T00:59:12.314Z,13.66
2018-10-18T01:00:12.320Z,13.71
2018-10-18T01:01:12.221Z,13.61
2018-10-18T01:02:12.243Z,13.68
2018-10-18T01:03:12.171Z,13.72
2018-10-18T01:04:58.606Z,13.69
2018-10-18T01:05:58.619Z,13.72
2018-10-18T01:06:58.543Z,13.76
2018-10-18T01:07:58.551Z,13.79
2018-10-18T01:08:58.502Z,13.83
2018-10-18T01:09:58.465Z,13.83
2018-10-18T01:10:58.445Z,13.80
2018-10-18T01:11:58.449Z,13.84
2018-10-18T01:12:58.389Z,13.80
2018-10-18T01:13:58.427Z,13.83
2018-10-18T01:14:58.339Z,13.91
2018-10-18T01:15:58.318Z,13.91
2018-10-18T01:16:58.331Z,13.99
2018-10-18T01:17:58.276Z,13.94
2018-10-18T01:18:58.347Z,14.01
2018-10-18T01:19:58.222Z,14.08
2018-10-18T01:20:59.281Z,14.04
2018-10-18T01:21:58.161Z,14.09
2018-10-18T01:22:58.169Z,14.01
2018-10-18T01:23:58.132Z,13.94
2018-10-18T01:24:58.181Z,14.04
2018-10-18T01:25:58.115Z,13.96
2018-10-18T01:26:58.104Z,14.05
2018-10-18T01:27:58.000Z,14.05
2018-10-18T01:28:58.010Z,14.12
2018-10-18T01:29:58.023Z,14.11
2018-10-18T01:30:58.027Z,14.23
2018-10-18T01:31:57.946Z,14.23
2018-10-18T01:33:43.952Z,14.24
2018-10-18T01:34:43.960Z,14.31
2018-10-18T01:35:43.814Z,14.26
2018-10-18T01:36:43.846Z,14.23
2018-10-18T01:37:43.835Z,14.27
2018-10-18T01:38:43.740Z,14.23
2018-10-18T01:39:43.714Z,14.36
2018-10-18T01:40:43.697Z,14.39
2018-10-18T01:41:43.800Z,14.36
2018-10-18T01:42:43.642Z,14.34
2018-10-18T01:43:43.679Z,14.36
2018-10-18T01:44:43.592Z,14.29
2018-10-18T01:45:43.585Z,14.38
2018-10-18T01:46:43.544Z,14.38
2018-10-18T01:47:43.595Z,14.44
2018-10-18T01:48:43.477Z,14.42
2018-10-18T01:50:34.363Z,14.46
2018-10-18T01:51:34.406Z,14.46
2018-10-18T01:52:34.291Z,14.59
2018-10-18T01:53:34.271Z,14.46
2018-10-18T01:54:34.324Z,14.52
2018-10-18T01:55:34.214Z,14.52
2018-10-18T01:56:34.198Z,14.52
2018-10-18T01:57:34.171Z,14.45
2018-10-18T01:58:34.241Z,14.54
2018-10-18T01:59:34.121Z,14.49
2018-10-18T02:00:34.093Z,14.41
2018-10-18T02:01:34.068Z,14.54
2018-10-18T02:02:34.060Z,14.48
2018-10-18T02:03:34.009Z,14.64
2018-10-18T02:04:34.004Z,14.60
2018-10-18T02:05:33.954Z,14.60
2018-10-18T02:06:35.049Z,14.56
2018-10-18T02:07:33.904Z,14.52
2018-10-18T02:08:33.881Z,14.46
2018-10-18T02:09:33.864Z,14.60
2018-10-18T02:10:33.914Z,14.60
2018-10-18T02:11:33.829Z,14.54
2018-10-18T02:12:33.782Z,14.53
2018-10-18T02:13:33.844Z,14.59
2018-10-18T02:14:33.731Z,14.52
2018-10-18T02:15:33.751Z,14.59
2018-10-18T02:16:33.688Z,14.56
2018-10-18T02:18:19.693Z,14.61
2018-10-18T02:19:19.728Z,14.67
2018-10-18T02:20:19.541Z,14.63
2018-10-18T02:21:19.556Z,14.53
2018-10-18T02:22:19.490Z,14.63
2018-10-18T02:23:19.465Z,14.66
2018-10-18T02:24:19.473Z,14.60
2018-10-18T02:25:19.456Z,14.59
2018-10-18T02:26:19.381Z,14.64
2018-10-18T02:27:19.391Z,14.63
2018-10-18T02:28:19.356Z,14.56
2018-10-18T02:29:19.304Z,14.67
2018-10-18T02:30:19.444Z,14.59
2018-10-18T02:31:19.314Z,14.61
2018-10-18T02:32:19.222Z,14.71
2018-10-18T02:33:19.227Z,14.61
2018-10-18T02:34:19.173Z,14.67
2018-10-18T02:36:05.171Z,14.59
2018-10-18T02:37:05.045Z,14.64
2018-10-18T02:38:05.016Z,14.67
2018-10-18T02:39:04.990Z,14.60
2018-10-18T02:40:04.962Z,14.52
2018-10-18T02:41:04.946Z,14.57
2018-10-18T02:42:04.949Z,14.59
2018-10-18T02:43:04.962Z,14.66
2018-10-18T02:44:04.860Z,14.56
2018-10-18T02:45:04.877Z,14.64
2018-10-18T02:46:11.328Z,14.61
2018-10-18T02:47:51.158Z,14.69
2018-10-18T02:48:51.095Z,14.63
2018-10-18T02:49:51.075Z,14.63
2018-10-18T02:50:51.070Z,14.63
2018-10-18T02:51:51.019Z,14.61
2018-10-18T02:52:51.088Z,14.54
2018-10-18T02:53:50.976Z,14.57
2018-10-18T02:54:50.994Z,14.53
2018-10-18T02:55:50.914Z,14.57
2018-10-18T02:56:51.013Z,14.57
2018-10-18T02:57:50.872Z,14.64
2018-10-18T02:58:50.930Z,14.54
2018-10-18T03:00:36.757Z,14.54
2018-10-18T03:01:36.742Z,14.61
2018-10-18T03:02:36.709Z,14.56
2018-10-18T03:03:36.675Z,14.57
2018-10-18T03:04:36.650Z,14.60
2018-10-18T03:05:36.627Z,14.60
2018-10-18T03:06:36.600Z,14.49
2018-10-18T03:07:36.570Z,14.54
2018-10-18T03:08:36.613Z,14.53
2018-10-18T03:09:36.525Z,14.57
2018-10-18T03:10:36.497Z,14.54
2018-10-18T03:11:36.536Z,14.57
2018-10-18T03:12:36.590Z,14.59
2018-10-18T03:13:36.449Z,14.60
2018-10-18T03:14:36.393Z,14.56
2018-10-18T03:15:36.457Z,14.49
2018-10-18T03:16:36.337Z,14.53
2018-10-18T03:17:36.370Z,14.46
2018-10-18T03:18:36.307Z,14.53
2018-10-18T03:19:36.385Z,14.42
2018-10-18T03:20:36.242Z,14.52
2018-10-18T03:21:36.289Z,14.49
2018-10-18T03:22:36.195Z,14.57
2018-10-18T03:23:36.208Z,14.53
2018-10-18T03:24:36.142Z,14.46
2018-10-18T03:25:36.220Z,14.42
2018-10-18T03:26:36.089Z,14.46
2018-10-18T03:27:36.128Z,14.45
2018-10-18T03:28:36.048Z,14.46
2018-10-18T03:29:36.012Z,14.56
2018-10-18T03:30:35.991Z,14.52
2018-10-18T03:31:36.054Z,14.41
2018-10-18T03:32:35.952Z,14.42
2018-10-18T03:33:35.906Z,14.45
2018-10-18T03:35:21.700Z,14.46
2018-10-18T03:36:21.754Z,14.44
2018-10-18T03:37:21.683Z,14.45
2018-10-18T03:38:21.664Z,14.46
2018-10-18T03:39:21.588Z,14.53
2018-10-18T03:40:21.676Z,14.41
2018-10-18T03:41:21.602Z,14.42
2018-10-18T03:42:21.602Z,14.38
2018-10-18T03:43:21.486Z,14.41
2018-10-18T03:44:21.502Z,14.44
2018-10-18T03:45:21.436Z,14.45
2018-10-18T03:46:21.516Z,14.44
2018-10-18T03:47:21.382Z,14.45
2018-10-18T03:48:21.394Z,14.48
2018-10-18T03:49:21.334Z,14.38
2018-10-18T03:50:21.385Z,14.38
2018-10-18T03:51:21.288Z,14.48
2018-10-18T03:52:21.291Z,14.45
2018-10-18T03:53:21.234Z,14.49
2018-10-18T03:54:21.310Z,14.44
2018-10-18T03:55:21.176Z,14.44
2018-10-18T03:56:21.220Z,14.46
2018-10-18T03:57:21.132Z,14.46
2018-10-18T03:58:21.140Z,14.46
2018-10-18T03:59:21.076Z,14.48
2018-10-18T04:00:22.103Z,14.49
2018-10-18T04:01:21.027Z,14.36
2018-10-18T04:02:21.054Z,14.48
2018-10-18T04:03:20.972Z,14.35
2018-10-18T04:04:20.965Z,14.38
2018-10-18T04:05:20.919Z,14.41
2018-10-18T04:06:21.061Z,14.44
2018-10-18T04:07:20.868Z,14.36
2018-10-18T04:08:20.894Z,14.36
2018-10-18T04:09:20.824Z,14.42
2018-10-18T04:10:20.803Z,14.38
2018-10-18T04:11:20.770Z,14.39
2018-10-18T04:12:21.953Z,14.42
2018-10-18T04:13:20.736Z,14.38
2018-10-18T04:14:20.727Z,14.39
2018-10-18T04:15:20.672Z,14.42
2018-10-18T04:16:20.745Z,14.35
2018-10-18T04:17:20.618Z,14.27
2018-10-18T04:18:20.702Z,14.27
2018-10-18T04:19:20.562Z,14.39
2018-10-18T04:20:20.563Z,14.38
2018-10-18T04:21:20.509Z,14.34
2018-10-18T04:22:20.581Z,14.30
2018-10-18T04:23:20.467Z,14.35
2018-10-18T04:24:20.491Z,14.27
2018-10-18T04:25:20.456Z,14.38
2018-10-18T04:26:20.399Z,14.31
2018-10-18T04:27:20.354Z,14.31
2018-10-18T04:28:20.424Z,14.24
2018-10-18T04:29:20.302Z,14.31
2018-10-18T04:30:20.442Z,14.30
2018-10-18T04:31:20.260Z,14.35
2018-10-18T04:32:20.235Z,14.36
2018-10-18T04:33:20.198Z,14.29
2018-10-18T04:34:20.260Z,14.36
2018-10-18T04:35:20.153Z,14.29
2018-10-18T04:36:20.253Z,14.39
2018-10-18T04:37:20.168Z,14.27
2018-10-18T04:38:20.180Z,14.31
2018-10-18T04:39:20.051Z,14.35
2018-10-18T04:40:20.086Z,14.34
2018-10-18T04:41:20.001Z,14.34
2018-10-18T04:42:20.003Z,14.29
2018-10-18T04:43:19.941Z,14.26
2018-10-18T04:44:21.030Z,14.38
2018-10-18T04:45:19.897Z,14.36
2018-10-18T04:46:19.927Z,14.39
2018-10-18T04:47:19.935Z,14.24
2018-10-18T04:48:20.934Z,14.31
2018-10-18T04:49:19.788Z,14.24
2018-10-18T04:50:19.862Z,14.27
2018-10-18T04:51:19.733Z,14.35
2018-10-18T04:52:19.738Z,14.27
2018-10-18T04:53:19.678Z,14.35
2018-10-18T04:54:19.737Z,14.41
2018-10-18T04:55:19.628Z,14.31
2018-10-18T04:56:19.651Z,14.35
2018-10-18T04:57:19.577Z,14.24
2018-10-18T04:58:19.659Z,14.38
2018-10-18T04:59:19.529Z,14.31
2018-10-18T05:00:19.546Z,14.26
2018-10-18T05:01:19.572Z,14.31
2018-10-18T05:02:19.491Z,14.36
2018-10-18T05:03:19.432Z,14.31
2018-10-18T05:04:19.515Z,14.35
2018-10-18T05:05:19.376Z,14.31
2018-10-18T05:06:19.414Z,14.35
2018-10-18T05:07:19.414Z,14.41
2018-10-18T05:08:19.339Z,14.29
2018-10-18T05:09:19.272Z,14.34
2018-10-18T05:10:19.348Z,14.29
2018-10-18T05:11:19.243Z,14.34
2018-10-18T05:12:19.276Z,14.31
2018-10-18T05:13:19.229Z,14.39
2018-10-18T05:14:19.160Z,14.34
2018-10-18T05:16:08.095Z,14.34
2018-10-18T05:17:08.158Z,14.29
2018-10-18T05:18:08.068Z,14.31
2018-10-18T05:19:08.094Z,14.31
2018-10-18T05:20:08.009Z,14.35
2018-10-18T05:21:08.022Z,14.34
2018-10-18T05:22:07.916Z,14.26
2018-10-18T05:23:07.892Z,14.27
2018-10-18T05:24:07.876Z,14.30
2018-10-18T05:25:07.962Z,14.29
2018-10-18T05:26:07.817Z,14.34
2018-10-18T05:27:07.784Z,14.26
2018-10-18T05:28:07.762Z,14.19
2018-10-18T05:29:07.798Z,14.23
2018-10-18T05:30:07.711Z,14.27
2018-10-18T05:31:54.908Z,14.17
2018-10-18T05:32:55.955Z,14.20
2018-10-18T05:33:54.832Z,14.12
2018-10-18T05:34:54.795Z,14.01
2018-10-18T05:35:54.780Z,14.11
2018-10-18T05:36:54.835Z,14.06
2018-10-18T05:37:54.721Z,14.12
2018-10-18T05:38:54.694Z,13.99
2018-10-18T05:39:54.664Z,13.90
2018-10-18T05:40:54.665Z,13.96
2018-10-18T05:41:54.680Z,13.93
2018-10-18T05:42:54.597Z,13.90
2018-10-18T05:43:54.561Z,13.88
2018-10-18T05:44:54.532Z,13.81
2018-10-18T05:45:54.518Z,13.84
2018-10-18T05:46:55.532Z,13.94
2018-10-18T05:47:54.469Z,13.76
2018-10-18T05:48:54.456Z,13.81
2018-10-18T05:49:54.421Z,13.65
2018-10-18T05:50:54.391Z,13.76
2018-10-18T05:51:54.443Z,13.71
2018-10-18T05:52:54.388Z,13.63
2018-10-18T05:54:41.114Z,13.63
2018-10-18T05:55:41.076Z,13.65
2018-10-18T05:56:41.051Z,13.59
2018-10-18T05:57:41.065Z,13.55
2018-10-18T05:58:40.990Z,13.50
2018-10-18T05:59:40.974Z,13.48
2018-10-18T06:00:40.989Z,13.50
2018-10-18T06:01:40.925Z,13.47
2018-10-18T06:02:40.892Z,13.43
2018-10-18T06:03:40.883Z,13.38
2018-10-18T06:04:40.841Z,13.44
2018-10-18T06:05:40.922Z,13.38
2018-10-18T06:06:40.806Z,13.38
2018-10-18T06:08:29.123Z,13.36
2018-10-18T06:09:29.084Z,13.38
2018-10-18T06:10:29.127Z,13.32
2018-10-18T06:11:29.182Z,13.38
2018-10-18T06:12:29.023Z,13.31
2018-10-18T06:13:29.170Z,13.46
2018-10-18T06:14:29.017Z,13.36
2018-10-18T06:16:17.002Z,13.32
2018-10-18T06:17:16.968Z,13.35
2018-10-18T06:18:17.103Z,13.35
2018-10-18T06:19:17.028Z,13.38
2018-10-18T06:20:16.957Z,13.39
2018-10-18T06:21:16.868Z,13.43
2018-10-18T06:22:16.827Z,13.36
2018-10-18T06:23:17.074Z,13.46
2018-10-18T06:24:16.775Z,13.43
2018-10-18T06:25:16.996Z,13.47
2018-10-18T06:26:16.771Z,13.48
2018-10-18T06:27:16.795Z,13.48
2018-10-18T06:28:16.674Z,13.51
2018-10-18T06:29:16.892Z,13.53
2018-10-18T06:30:16.637Z,13.62
2018-10-18T06:31:16.729Z,13.66
2018-10-18T06:32:16.569Z,13.65
2018-10-18T06:33:16.637Z,13.65
2018-10-18T06:34:16.523Z,13.69
2018-10-18T06:36:03.528Z,13.63
2018-10-18T06:37:03.578Z,13.61
2018-10-18T06:38:03.468Z,13.63
2018-10-18T06:39:03.477Z,13.62
2018-10-18T06:40:03.408Z,13.69
2018-10-18T06:41:03.428Z,13.71
2018-10-18T06:42:03.355Z,13.75
2018-10-18T06:43:03.497Z,13.75
2018-10-18T06:44:03.308Z,13.72
2018-10-18T06:45:03.337Z,13.75
2018-10-18T06:46:03.259Z,13.71
2018-10-18T06:47:03.333Z,13.80
2018-10-18T06:48:03.271Z,13.79
2018-10-18T06:49:03.365Z,13.90
2018-10-18T06:50:03.165Z,13.90
2018-10-18T06:51:03.168Z,13.81
2018-10-18T06:52:50.068Z,13.91
2018-10-18T06:53:50.039Z,13.91
2018-10-18T06:55:44.265Z,13.86
2018-10-18T06:56:44.266Z,13.87
2018-10-18T06:57:44.177Z,13.94
2018-10-18T06:58:44.177Z,13.90
2018-10-18T06:59:44.162Z,14.02
2018-10-18T07:00:44.181Z,13.94
2018-10-18T07:01:44.072Z,13.96
2018-10-18T07:02:44.095Z,13.88
2018-10-18T07:03:44.013Z,13.98
2018-10-18T07:04:44.009Z,13.91
2018-10-18T07:05:30.053Z,13.93
2018-10-18T07:06:30.009Z,14.05
2018-10-18T07:07:29.981Z,13.90
2018-10-18T07:08:30.051Z,13.93
2018-10-18T07:09:29.931Z,13.94
2018-10-18T07:10:30.071Z,13.87
2018-10-18T07:11:29.877Z,13.84
2018-10-18T07:12:30.025Z,13.90
2018-10-18T07:13:29.829Z,13.86
2018-10-18T07:14:29.802Z,13.84
2018-10-18T07:15:29.838Z,13.93
2018-10-18T07:16:29.789Z,13.84
2018-10-18T07:17:29.769Z,13.86
2018-10-18T07:18:29.706Z,13.93
2018-10-18T07:19:30.789Z,13.76
2018-10-18T07:20:29.664Z,13.84
2018-10-18T07:21:29.675Z,13.83
2018-10-18T07:22:29.595Z,13.79
2018-10-18T07:23:29.587Z,13.84
2018-10-18T07:24:29.545Z,13.86
2018-10-18T07:25:29.622Z,13.84
2018-10-18T07:26:29.505Z,13.88
2018-10-18T07:27:29.536Z,13.91
2018-10-18T07:28:29.468Z,13.76
2018-10-18T07:29:29.416Z,13.86
2018-10-18T07:30:29.388Z,13.80
2018-10-18T07:32:15.688Z,13.83
2018-10-18T07:33:15.730Z,13.81
2018-10-18T07:34:15.627Z,13.87
2018-10-18T07:35:15.661Z,13.87
2018-10-18T07:36:15.757Z,13.91
2018-10-18T07:37:15.667Z,13.99
2018-10-18T07:39:01.987Z,13.99
2018-10-18T07:40:02.052Z,14.06
2018-10-18T07:41:01.931Z,13.94
2018-10-18T07:42:01.974Z,13.98
2018-10-18T07:43:01.970Z,13.96
2018-10-18T07:44:01.853Z,14.04
2018-10-18T07:45:01.858Z,14.05
2018-10-18T07:46:01.801Z,13.94
2018-10-18T07:47:01.892Z,13.91
2018-10-18T07:48:01.765Z,13.93
2018-10-18T07:49:01.724Z,13.96
2018-10-18T07:50:01.689Z,13.96
2018-10-18T07:51:01.765Z,13.93
2018-10-18T07:52:01.645Z,13.91
2018-10-18T07:53:01.635Z,14.05
2018-10-18T07:54:01.623Z,14.02
2018-10-18T07:55:01.635Z,13.96
2018-10-18T07:56:01.539Z,13.96
2018-10-18T07:57:01.508Z,13.91
2018-10-18T07:58:01.500Z,13.93
2018-10-18T07:59:01.469Z,13.94
2018-10-18T08:00:01.523Z,13.94
2018-10-18T08:01:01.471Z,13.90
2018-10-18T08:02:01.386Z,13.94
2018-10-18T08:03:01.372Z,13.99
2018-10-18T08:04:01.341Z,14.08
2018-10-18T08:05:47.702Z,14.06
2018-10-18T08:06:47.659Z,13.98
2018-10-18T08:07:47.635Z,14.06
2018-10-18T08:08:47.609Z,14.06
2018-10-18T08:09:47.601Z,14.11
2018-10-18T08:10:47.585Z,14.02
2018-10-18T08:11:47.534Z,14.12
2018-10-18T08:12:47.515Z,14.08
2018-10-18T08:13:47.499Z,14.30
2018-10-18T08:14:47.456Z,14.31
2018-10-18T08:15:47.429Z,14.35
2018-10-18T08:16:47.545Z,14.38
2018-10-18T08:17:47.391Z,14.49
2018-10-18T08:18:47.353Z,14.59
2018-10-18T08:19:47.326Z,14.48
2018-10-18T08:21:34.229Z,14.63
2018-10-18T08:22:34.228Z,14.57
2018-10-18T08:23:34.277Z,14.61
2018-10-18T08:24:34.133Z,14.52
2018-10-18T08:25:34.135Z,14.64
2018-10-18T08:26:34.091Z,14.61
2018-10-18T08:27:35.127Z,14.66
2018-10-18T08:28:34.065Z,14.66
2018-10-18T08:29:34.018Z,14.64
2018-10-18T08:30:33.991Z,14.59
2018-10-18T08:31:34.048Z,14.49
2018-10-18T08:32:33.936Z,14.64
2018-10-18T08:33:33.910Z,14.60
2018-10-18T08:34:33.883Z,14.59
2018-10-18T08:35:33.943Z,14.67
2018-10-18T08:36:33.833Z,14.64
2018-10-18T08:37:33.858Z,14.60
2018-10-18T08:38:33.780Z,14.61
2018-10-18T08:39:33.867Z,14.67
2018-10-18T08:41:20.127Z,14.78
2018-10-18T08:42:20.164Z,14.79
2018-10-18T08:43:20.067Z,14.91
2018-10-18T08:44:20.107Z,14.90
2018-10-18T08:45:20.021Z,14.91
2018-10-18T08:46:20.189Z,14.90
2018-10-18T08:47:19.956Z,14.93
2018-10-18T08:48:19.997Z,14.95
2018-10-18T08:49:19.905Z,14.91
2018-10-18T08:50:19.908Z,14.91
2018-10-18T08:51:19.861Z,14.95
2018-10-18T08:52:19.959Z,15.09
2018-10-18T08:53:19.814Z,15.07
2018-10-18T08:54:19.782Z,14.98
2018-10-18T08:55:19.970Z,15.09
2018-10-18T08:56:19.739Z,15.07
2018-10-18T08:57:19.717Z,15.07
2018-10-18T08:58:19.683Z,15.12
2018-10-18T08:59:19.917Z,15.16
2018-10-18T09:00:19.661Z,15.23
2018-10-18T09:01:19.686Z,15.30
2018-10-18T09:02:19.592Z,15.28
2018-10-18T09:03:19.583Z,15.35
2018-10-18T09:04:19.543Z,15.48
2018-10-18T09:05:19.590Z,15.59
2018-10-18T09:06:19.471Z,15.62
2018-10-18T09:07:20.527Z,15.73
2018-10-18T09:08:19.431Z,15.73
2018-10-18T09:09:19.437Z,15.81
2018-10-18T09:10:19.374Z,15.80
2018-10-18T09:12:05.336Z,15.80
2018-10-18T09:13:05.366Z,15.92
2018-10-18T09:14:05.263Z,15.96
2018-10-18T09:15:05.341Z,16.01
2018-10-18T09:16:05.239Z,15.95
2018-10-18T09:17:05.231Z,15.86
2018-10-18T09:18:05.152Z,15.89
2018-10-18T09:19:05.172Z,16.04
2018-10-18T09:20:05.099Z,16.08
2018-10-18T09:21:05.166Z,16.01
2018-10-18T09:22:05.051Z,16.23
2018-10-18T09:23:05.085Z,16.32
2018-10-18T09:24:04.996Z,16.13
2018-10-18T09:25:05.165Z,16.33
2018-10-18T09:26:04.957Z,16.44
2018-10-18T09:27:05.005Z,16.54
2018-10-18T09:28:04.897Z,16.65
2018-10-18T09:29:04.926Z,16.67
2018-10-18T09:30:04.853Z,16.73
2018-10-18T09:31:04.951Z,16.62
2018-10-18T09:32:04.791Z,16.63
2018-10-18T09:33:04.946Z,16.70
2018-10-18T09:34:04.747Z,16.66
2018-10-18T09:35:04.862Z,16.63
2018-10-18T09:36:04.692Z,16.60
2018-10-18T09:37:04.806Z,16.55
2018-10-18T09:37:51.149Z,16.63
2018-10-18T09:38:51.163Z,16.54
2018-10-18T09:40:44.971Z,16.33
2018-10-18T09:41:44.910Z,16.29
2018-10-18T09:42:45.025Z,16.34
2018-10-18T09:43:44.802Z,16.27
2018-10-18T09:44:44.995Z,16.30
2018-10-18T09:45:44.751Z,16.11
2018-10-18T09:46:44.818Z,16.27
2018-10-18T09:47:44.702Z,16.27
2018-10-18T09:48:44.835Z,16.32
2018-10-18T09:49:44.651Z,16.30
2018-10-18T09:50:44.751Z,16.37
2018-10-18T09:51:44.610Z,16.40
2018-10-18T09:52:44.771Z,16.57
2018-10-18T09:53:44.548Z,16.63
2018-10-18T09:54:44.676Z,16.72
2018-10-18T09:55:44.575Z,16.70
2018-10-18T09:56:44.579Z,16.80
2018-10-18T09:57:44.453Z,16.88
2018-10-18T09:58:44.588Z,16.95
2018-10-18T09:59:44.396Z,17.06
2018-10-18T10:01:31.269Z,17.22
2018-10-18T10:02:32.349Z,17.24
2018-10-18T10:03:31.228Z,17.25
2018-10-18T10:04:31.328Z,17.27
2018-10-18T10:05:31.147Z,17.21
2018-10-18T10:06:32.261Z,17.20
2018-10-18T10:07:31.108Z,17.18
2018-10-18T10:08:31.252Z,17.07
2018-10-18T10:09:31.057Z,16.99
2018-10-18T10:10:31.166Z,17.21
2018-10-18T10:11:31.014Z,17.06
2018-10-18T10:12:31.072Z,17.00
2018-10-18T10:13:31.019Z,16.88
2018-10-18T10:14:30.978Z,16.91
2018-10-18T10:15:30.902Z,16.87
2018-10-18T10:16:30.951Z,16.73
2018-10-18T10:17:30.889Z,16.88
2018-10-18T10:18:30.987Z,16.91
2018-10-18T10:19:17.100Z,17.06
2018-10-18T10:20:16.993Z,17.02
2018-10-18T10:21:16.946Z,17.12
2018-10-18T10:22:16.926Z,17.30
2018-10-18T10:23:16.898Z,17.42
2018-10-18T10:24:16.864Z,17.35
2018-10-18T10:25:16.946Z,17.39
2018-10-18T10:26:16.820Z,17.32
2018-10-18T10:27:16.801Z,17.33
2018-10-18T10:28:16.766Z,17.35
2018-10-18T10:29:16.739Z,17.42
2018-10-18T10:30:16.750Z,17.49
2018-10-18T10:31:16.795Z,17.47
2018-10-18T10:32:16.684Z,17.45
2018-10-18T10:33:16.672Z,17.47
2018-10-18T10:34:16.610Z,17.43
2018-10-18T10:35:16.652Z,17.46
2018-10-18T10:36:16.572Z,17.36
2018-10-18T10:37:16.731Z,17.42
2018-10-18T10:38:16.511Z,17.38
2018-10-18T10:40:02.950Z,17.36
2018-10-18T10:41:02.880Z,17.30
2018-10-18T10:42:03.128Z,17.24
2018-10-18T10:43:02.866Z,17.14
2018-10-18T10:44:03.008Z,17.18
2018-10-18T10:45:02.795Z,16.99
2018-10-18T10:46:02.867Z,16.84
2018-10-18T10:47:02.687Z,16.62
2018-10-18T10:48:02.844Z,16.60
2018-10-18T10:49:02.646Z,16.77
2018-10-18T10:50:02.686Z,16.63
2018-10-18T10:51:02.654Z,16.66
2018-10-18T10:52:02.821Z,16.70
2018-10-18T10:53:02.539Z,16.55
2018-10-18T10:54:02.735Z,16.55
2018-10-18T10:55:02.486Z,16.54
2018-10-18T10:56:02.649Z,16.44
2018-10-18T10:57:02.518Z,16.41
2018-10-18T10:58:02.619Z,16.32
2018-10-18T10:59:02.536Z,16.37
2018-10-18T11:00:02.550Z,16.30
2018-10-18T11:01:02.338Z,16.25
2018-10-18T11:02:02.427Z,16.25
2018-10-18T11:03:02.637Z,16.23
2018-10-18T11:04:03.423Z,16.32
2018-10-18T11:05:02.240Z,16.27
2018-10-18T11:06:02.389Z,16.17
2018-10-18T11:07:02.181Z,16.32
2018-10-18T11:08:02.313Z,16.34
2018-10-18T11:09:02.201Z,16.14
2018-10-18T11:10:02.219Z,16.23
2018-10-18T11:11:02.096Z,16.13
2018-10-18T11:12:02.198Z,16.22
2018-10-18T11:13:02.045Z,16.14
2018-10-18T11:14:02.104Z,16.25
2018-10-18T11:15:02.074Z,16.18
2018-10-18T11:16:02.024Z,16.26
2018-10-18T11:17:01.981Z,16.27
2018-10-18T11:18:02.050Z,16.32
2018-10-18T11:19:01.887Z,16.32
2018-10-18T11:20:02.050Z,16.10
2018-10-18T11:20:48.301Z,16.07
2018-10-18T11:21:48.372Z,16.06
2018-10-18T11:22:48.227Z,15.99
2018-10-18T11:23:48.241Z,15.92
2018-10-18T11:24:48.285Z,15.95
2018-10-18T11:25:48.249Z,15.89
2018-10-18T11:26:48.133Z,15.98
2018-10-18T11:27:48.164Z,16.16
2018-10-18T11:28:48.081Z,16.13
2018-10-18T11:29:48.069Z,16.18
2018-10-18T11:30:48.034Z,16.14
2018-10-18T11:31:48.085Z,16.25
2018-10-18T11:32:47.983Z,16.27
2018-10-18T11:33:47.991Z,16.36
2018-10-18T11:34:47.920Z,16.18
2018-10-18T11:35:48.006Z,16.29
2018-10-18T11:36:47.886Z,16.30
2018-10-18T11:37:47.857Z,16.25
2018-10-18T11:38:47.831Z,16.33
2018-10-18T11:39:47.799Z,16.36
2018-10-18T11:40:47.834Z,16.37
2018-10-18T11:41:47.753Z,16.36
2018-10-18T11:42:47.797Z,16.36
2018-10-18T11:43:47.706Z,16.33
2018-10-18T11:44:47.761Z,16.42
2018-10-18T11:45:47.656Z,16.41
2018-10-18T11:46:47.668Z,16.42
2018-10-18T11:47:47.605Z,16.47
2018-10-18T11:48:47.688Z,16.55
2018-10-18T11:49:47.555Z,16.50
2018-10-18T11:50:47.593Z,16.52
2018-10-18T11:51:47.594Z,16.47
2018-10-18T11:52:47.501Z,16.40
2018-10-18T11:53:47.464Z,16.40
2018-10-18T11:54:47.526Z,16.32
2018-10-18T11:55:47.404Z,16.37
2018-10-18T11:56:47.427Z,16.40
2018-10-18T11:57:47.348Z,16.48
2018-10-18T11:58:47.339Z,16.45
2018-10-18T11:59:47.298Z,16.54
2018-10-18T12:00:47.355Z,16.54
2018-10-18T12:01:47.255Z,16.54
2018-10-18T12:02:47.354Z,16.63
2018-10-18T12:03:47.201Z,16.52
2018-10-18T12:04:47.295Z,16.55
2018-10-18T12:05:47.147Z,16.48
2018-10-18T12:06:47.138Z,16.52
2018-10-18T12:07:47.112Z,16.50
2018-10-18T12:08:47.132Z,16.52
2018-10-18T12:09:47.082Z,16.42
2018-10-18T12:10:33.318Z,16.55
2018-10-18T12:11:33.241Z,16.37
2018-10-18T12:12:33.316Z,16.55
2018-10-18T12:13:33.184Z,16.47
2018-10-18T12:14:33.249Z,16.54
2018-10-18T12:15:33.137Z,16.57
2018-10-18T12:16:33.143Z,16.62
2018-10-18T12:17:33.077Z,16.51
2018-10-18T12:18:33.169Z,16.70
2018-10-18T12:19:33.035Z,16.70
2018-10-18T12:20:33.088Z,16.63
2018-10-18T12:21:32.968Z,16.62
2018-10-18T12:22:33.075Z,16.59
2018-10-18T12:23:32.938Z,16.54
2018-10-18T12:24:19.434Z,16.54
2018-10-18T12:25:19.487Z,16.55
2018-10-18T12:26:19.380Z,16.50
2018-10-18T12:27:19.439Z,16.55
2018-10-18T12:28:19.317Z,16.42
2018-10-18T12:29:19.412Z,16.41
2018-10-18T12:30:19.274Z,16.47
2018-10-18T12:31:19.330Z,16.37
2018-10-18T12:32:19.224Z,16.48
2018-10-18T12:33:19.331Z,16.51
2018-10-18T12:34:19.168Z,16.65
2018-10-18T12:35:19.264Z,16.59
2018-10-18T12:36:19.129Z,16.78
2018-10-18T12:37:19.156Z,16.82
2018-10-18T12:38:19.068Z,16.80
2018-10-18T12:39:19.180Z,16.80
2018-10-18T12:40:19.058Z,16.81
2018-10-18T12:41:21.266Z,16.81
2018-10-18T12:42:18.980Z,16.75
2018-10-18T12:43:20.020Z,16.72
2018-10-18T12:44:19.011Z,16.80
2018-10-18T12:45:20.028Z,16.66
2018-10-18T12:46:18.868Z,16.63
2018-10-18T12:47:18.924Z,16.62
2018-10-18T12:48:18.947Z,16.67
2018-10-18T12:49:18.928Z,16.55
2018-10-18T12:50:18.766Z,16.63
2018-10-18T12:51:18.843Z,16.55
2018-10-18T12:52:18.723Z,16.54
2018-10-18T12:53:18.751Z,16.41
2018-10-18T12:54:18.732Z,16.33
2018-10-18T12:55:18.662Z,16.34
2018-10-18T12:56:18.678Z,16.16
2018-10-18T12:57:18.673Z,16.10
2018-10-18T12:58:18.563Z,15.85
2018-10-18T12:59:18.691Z,15.60
2018-10-18T13:00:18.541Z,15.60
2018-10-18T13:01:19.627Z,15.48
2018-10-18T13:02:18.473Z,15.30
2018-10-18T13:03:18.508Z,15.25
2018-10-18T13:04:18.422Z,15.20
2018-10-18T13:05:18.525Z,15.23
2018-10-18T13:06:18.368Z,15.20
2018-10-18T13:07:18.434Z,15.18
2018-10-18T13:08:18.353Z,15.05
2018-10-18T13:09:18.452Z,15.03
2018-10-18T13:10:18.264Z,15.15
2018-10-18T13:11:18.360Z,15.03
2018-10-18T13:12:18.318Z,14.93